首页
METAR-TAF:

METAR-TAF

机场 :

Hill City Municipal Airport

Hill City, 堪薩斯州, 美国

纬度: 39-22-29N, 经度: 099-49-47W, 海拔: 678米

当前天气观测

该预报发布于1小时和2分钟前的23:53 UTC
风速4节,风向西转西北
温度 8°C
湿度 36%
气压 1016 hPa
能見度: 16.1公里
天空无云

METAR: KHLC 172353Z AUTO 30004KT 10SM CLR 08/M06 A2999 RMK AO2 SLP162 T00781056 10156 20061 56008

时间: 18:55 (00:55 UTC)


TAF: 丢失

超过4000个机场的气象观测和天气预报(METAR&TAF报告)。

可查询的气象台以黄色和红色小点在地图上表示。

将鼠标移到小点上方,可查看气象台名称。

然后点击查看天气观测和预报。

如需切换地图:点击带黑十字的绿色按钮放大地图;点击带横线的绿色按钮缩小地图;或者点击绿色箭头查看邻近地区的地图。


METAR-TAF: